createdAt,value
2018-04-22T00:01:10.513Z,19.82
2018-04-22T00:03:38.140Z,19.86
2018-04-22T00:06:07.396Z,19.81
2018-04-22T00:08:36.867Z,19.77
2018-04-22T00:11:06.224Z,19.74
2018-04-22T00:13:36.564Z,19.66
2018-04-22T00:16:05.028Z,19.63
2018-04-22T00:18:35.613Z,19.59
2018-04-22T00:21:06.037Z,19.47
2018-04-22T00:23:35.050Z,19.44
2018-04-22T00:26:04.241Z,19.35
2018-04-22T00:28:31.700Z,19.33
2018-04-22T00:31:01.956Z,19.34
2018-04-22T00:33:31.440Z,19.30
2018-04-22T00:36:01.999Z,19.25
2018-04-22T00:38:31.825Z,19.22
2018-04-22T00:41:01.312Z,19.21
2018-04-22T00:43:31.019Z,19.18
2018-04-22T00:46:00.537Z,19.20
2018-04-22T00:48:30.121Z,19.15
2018-04-22T00:50:59.316Z,19.09
2018-04-22T00:53:28.618Z,19.08
2018-04-22T00:55:58.227Z,19.10
2018-04-22T00:58:27.695Z,19.04
2018-04-22T01:00:57.216Z,19.01
2018-04-22T01:03:26.276Z,19.00
2018-04-22T01:05:55.468Z,19.00
2018-04-22T01:08:22.951Z,18.93
2018-04-22T01:10:53.703Z,18.91
2018-04-22T01:13:22.994Z,18.89
2018-04-22T01:15:52.332Z,18.86
2018-04-22T01:18:25.405Z,18.82
2018-04-22T01:20:54.910Z,18.74
2018-04-22T01:23:24.201Z,18.70
2018-04-22T01:25:53.986Z,18.66
2018-04-22T01:28:23.068Z,18.61
2018-04-22T01:30:52.235Z,18.54
2018-04-22T01:33:21.641Z,18.51
2018-04-22T01:35:52.700Z,18.45
2018-04-22T01:38:22.368Z,18.41
2018-04-22T01:40:52.008Z,18.36
2018-04-22T01:43:21.798Z,18.32
2018-04-22T01:45:51.407Z,18.32
2018-04-22T01:48:20.899Z,18.30
2018-04-22T01:50:50.596Z,18.30
2018-04-22T01:53:20.997Z,18.22
2018-04-22T01:55:52.887Z,18.16
2018-04-22T01:58:26.277Z,18.10
2018-04-22T02:00:53.740Z,17.99
2018-04-22T02:03:22.772Z,17.97
2018-04-22T02:05:51.993Z,17.94
2018-04-22T02:08:21.880Z,17.91
2018-04-22T02:10:51.328Z,17.95
2018-04-22T02:13:19.626Z,17.94
2018-04-22T02:15:50.559Z,17.83
2018-04-22T02:18:20.379Z,17.79
2018-04-22T02:20:49.763Z,17.72
2018-04-22T02:23:19.856Z,17.69
2018-04-22T02:25:49.053Z,17.61
2018-04-22T02:28:18.646Z,17.64
2018-04-22T02:30:47.855Z,17.65
2018-04-22T02:33:17.229Z,17.66
2018-04-22T02:35:47.373Z,17.62
2018-04-22T02:38:18.376Z,17.53
2018-04-22T02:40:49.574Z,17.53
2018-04-22T02:43:18.918Z,17.52
2018-04-22T02:45:48.621Z,17.50
2018-04-22T02:48:18.070Z,17.47
2018-04-22T02:50:45.690Z,17.48
2018-04-22T02:53:18.217Z,17.43
2018-04-22T02:55:47.505Z,17.44
2018-04-22T02:58:17.386Z,17.44
2018-04-22T03:00:46.667Z,17.41
2018-04-22T03:03:14.830Z,17.31
2018-04-22T03:05:44.269Z,17.18
2018-04-22T03:08:13.616Z,17.06
2018-04-22T03:10:43.503Z,16.98
2018-04-22T03:13:12.919Z,16.91
2018-04-22T03:15:47.470Z,16.88
2018-04-22T03:18:16.827Z,16.83
2018-04-22T03:20:47.284Z,16.76
2018-04-22T03:23:16.594Z,16.69
2018-04-22T03:25:45.975Z,16.59
2018-04-22T03:28:15.204Z,16.56
2018-04-22T03:30:44.679Z,16.50
2018-04-22T03:33:14.194Z,16.52
2018-04-22T03:35:44.472Z,16.50
2018-04-22T03:38:13.695Z,16.50
2018-04-22T03:40:42.834Z,16.49
2018-04-22T03:43:11.928Z,16.47
2018-04-22T03:45:40.694Z,16.42
2018-04-22T03:48:11.338Z,16.41
2018-04-22T03:50:41.038Z,16.39
2018-04-22T03:53:10.525Z,16.42
2018-04-22T03:55:37.967Z,16.43
2018-04-22T03:58:08.374Z,16.46
2018-04-22T04:00:37.284Z,16.45
2018-04-22T04:03:06.843Z,16.38
2018-04-22T04:05:36.448Z,16.29
2018-04-22T04:08:04.493Z,16.29
2018-04-22T04:10:33.797Z,16.28
2018-04-22T04:13:03.182Z,16.26
2018-04-22T04:15:32.326Z,16.20
2018-04-22T04:21:30.236Z,15.98
2018-04-22T04:27:26.740Z,15.95
2018-04-22T04:29:56.746Z,15.94
2018-04-22T04:32:26.347Z,15.97
2018-04-22T04:34:55.584Z,15.96
2018-04-22T04:37:24.828Z,15.99
2018-04-22T04:39:54.523Z,16.00
2018-04-22T04:42:23.652Z,16.01
2018-04-22T04:44:53.830Z,16.04
2018-04-22T04:47:23.566Z,16.03
2018-04-22T04:49:52.840Z,16.01
2018-04-22T04:52:22.293Z,16.03
2018-04-22T04:54:52.313Z,16.10
2018-04-22T04:57:21.750Z,16.01
2018-04-22T04:59:50.939Z,16.06
2018-04-22T05:02:20.366Z,16.08
2018-04-22T05:04:49.901Z,16.10
2018-04-22T05:07:19.418Z,16.07
2018-04-22T05:09:50.778Z,16.16
2018-04-22T05:12:20.788Z,16.14
2018-04-22T05:14:50.089Z,16.20
2018-04-22T05:17:19.776Z,16.27
2018-04-22T05:19:52.191Z,16.39
2018-04-22T05:22:22.511Z,16.45
2018-04-22T05:24:51.822Z,16.51
2018-04-22T05:27:22.991Z,16.58
2018-04-22T05:29:52.136Z,16.66
2018-04-22T05:32:21.971Z,16.74
2018-04-22T05:34:52.333Z,16.85
2018-04-22T05:37:22.442Z,16.90
2018-04-22T05:39:51.969Z,17.01
2018-04-22T05:42:22.011Z,17.30
2018-04-22T05:44:51.346Z,18.87
2018-04-22T05:47:20.680Z,20.38
2018-04-22T05:49:49.990Z,21.60
2018-04-22T05:52:19.284Z,22.71
2018-04-22T05:54:48.623Z,23.60
2018-04-22T05:57:18.722Z,24.38
2018-04-22T05:59:48.473Z,24.98
2018-04-22T06:02:17.611Z,25.48
2018-04-22T06:04:47.741Z,26.12
2018-04-22T06:07:17.136Z,26.73
2018-04-22T06:09:47.747Z,27.34
2018-04-22T06:12:22.556Z,27.75
2018-04-22T06:14:51.907Z,28.00
2018-04-22T06:17:21.223Z,28.55
2018-04-22T06:19:50.637Z,28.35
2018-04-22T06:22:20.286Z,28.67
2018-04-22T06:24:49.295Z,29.18
2018-04-22T06:27:19.033Z,29.58
2018-04-22T06:29:48.692Z,29.96
2018-04-22T06:32:18.014Z,30.47
2018-04-22T06:34:49.839Z,30.78
2018-04-22T06:37:19.346Z,31.02
2018-04-22T06:39:48.620Z,30.37
2018-04-22T06:42:17.851Z,27.91
2018-04-22T06:44:46.697Z,25.91
2018-04-22T06:47:16.436Z,24.59
2018-04-22T06:49:46.039Z,23.77
2018-04-22T06:52:15.438Z,23.00
2018-04-22T06:54:48.261Z,22.74
2018-04-22T06:57:17.773Z,22.55
2018-04-22T06:59:48.964Z,22.48
2018-04-22T07:02:18.851Z,22.35
2018-04-22T07:04:51.349Z,22.31
2018-04-22T07:07:20.831Z,22.38
2018-04-22T07:09:50.672Z,22.34
2018-04-22T07:12:20.381Z,22.27
2018-04-22T07:14:50.044Z,21.99
2018-04-22T07:17:19.996Z,21.90
2018-04-22T07:19:48.394Z,21.91
2018-04-22T07:22:18.000Z,21.96
2018-04-22T07:24:47.705Z,22.09
2018-04-22T07:27:17.027Z,22.19
2018-04-22T07:29:48.626Z,22.51
2018-04-22T07:32:17.720Z,22.71
2018-04-22T07:34:45.183Z,22.80
2018-04-22T07:37:16.047Z,22.82
2018-04-22T07:39:46.868Z,22.95
2018-04-22T07:42:16.201Z,22.78
2018-04-22T07:44:46.099Z,23.12
2018-04-22T07:47:15.193Z,23.35
2018-04-22T07:49:43.272Z,23.57
2018-04-22T07:52:13.065Z,23.57
2018-04-22T07:54:43.141Z,23.68
2018-04-22T07:57:13.327Z,23.63
2018-04-22T07:59:42.801Z,23.84
2018-04-22T08:02:12.533Z,23.90
2018-04-22T08:04:42.807Z,24.00
2018-04-22T08:07:12.361Z,24.11
2018-04-22T08:09:41.543Z,24.33
2018-04-22T08:12:14.506Z,24.49
2018-04-22T08:14:44.490Z,24.30
2018-04-22T08:17:14.617Z,24.43
2018-04-22T08:19:43.795Z,24.66
2018-04-22T08:22:15.023Z,24.79
2018-04-22T08:24:46.586Z,24.89
2018-04-22T08:27:15.802Z,24.96
2018-04-22T08:29:45.484Z,24.89
2018-04-22T08:32:15.706Z,25.05
2018-04-22T08:34:46.537Z,25.06
2018-04-22T08:37:16.186Z,25.03
2018-04-22T08:39:45.743Z,25.16
2018-04-22T08:42:15.208Z,25.37
2018-04-22T08:44:45.125Z,25.52
2018-04-22T08:47:14.886Z,25.64
2018-04-22T08:49:43.949Z,25.64
2018-04-22T08:52:11.460Z,25.54
2018-04-22T08:54:41.660Z,25.76
2018-04-22T08:57:11.272Z,25.91
2018-04-22T08:59:43.442Z,26.01
2018-04-22T09:02:12.252Z,26.08
2018-04-22T09:04:41.512Z,26.22
2018-04-22T09:07:10.678Z,26.25
2018-04-22T09:09:52.999Z,26.21
2018-04-22T09:12:22.152Z,26.31
2018-04-22T09:14:55.672Z,26.35
2018-04-22T09:17:25.535Z,26.36
2018-04-22T09:19:55.225Z,26.47
2018-04-22T09:22:24.270Z,26.65
2018-04-22T09:24:53.853Z,26.85
2018-04-22T09:27:22.893Z,26.99
2018-04-22T09:29:52.236Z,27.14
2018-04-22T09:32:21.713Z,27.10
2018-04-22T09:34:51.223Z,27.09
2018-04-22T09:37:20.741Z,27.19
2018-04-22T09:39:50.116Z,27.35
2018-04-22T09:42:19.739Z,27.50
2018-04-22T09:44:47.226Z,27.35
2018-04-22T09:47:17.464Z,27.38
2018-04-22T09:49:46.715Z,27.43
2018-04-22T09:52:15.889Z,27.61
2018-04-22T09:54:45.295Z,27.74
2018-04-22T09:57:13.674Z,27.81
2018-04-22T09:59:42.984Z,27.88
2018-04-22T10:02:16.667Z,27.96
2018-04-22T10:04:48.711Z,28.05
2018-04-22T10:07:17.999Z,28.06
2018-04-22T10:09:47.216Z,28.14
2018-04-22T10:12:17.212Z,28.23
2018-04-22T10:14:46.994Z,28.30
2018-04-22T10:17:16.652Z,28.42
2018-04-22T10:19:45.869Z,28.47
2018-04-22T10:22:15.325Z,28.52
2018-04-22T10:24:45.193Z,28.60
2018-04-22T10:27:14.106Z,28.65
2018-04-22T10:29:43.526Z,28.71
2018-04-22T10:32:12.641Z,28.52
2018-04-22T10:34:42.084Z,28.66
2018-04-22T10:37:11.465Z,28.73
2018-04-22T10:39:41.059Z,28.98
2018-04-22T10:42:10.569Z,29.05
2018-04-22T10:44:39.941Z,29.10
2018-04-22T10:47:09.709Z,29.13
2018-04-22T10:49:39.967Z,29.25
2018-04-22T10:52:09.283Z,29.46
2018-04-22T10:54:38.300Z,29.45
2018-04-22T10:57:08.141Z,29.58
2018-04-22T10:59:38.324Z,29.78
2018-04-22T11:02:07.420Z,29.81
2018-04-22T11:04:37.113Z,29.64
2018-04-22T11:07:10.101Z,29.74
2018-04-22T11:09:39.606Z,29.97
2018-04-22T11:12:08.991Z,30.15
2018-04-22T11:14:36.466Z,30.17
2018-04-22T11:17:06.512Z,30.15
2018-04-22T11:19:36.072Z,30.07
2018-04-22T11:22:05.863Z,30.31
2018-04-22T11:24:35.002Z,29.98
2018-04-22T11:27:04.276Z,29.78
2018-04-22T11:29:33.928Z,29.94
2018-04-22T11:32:03.245Z,29.51
2018-04-22T11:34:32.286Z,29.95
2018-04-22T11:37:01.762Z,30.29
2018-04-22T11:39:31.946Z,30.48
2018-04-22T11:41:59.415Z,30.05
2018-04-22T11:44:28.896Z,29.92
2018-04-22T11:46:58.758Z,29.38
2018-04-22T11:49:27.992Z,29.35
2018-04-22T11:51:57.607Z,29.31
2018-04-22T11:54:26.553Z,29.42
2018-04-22T11:56:56.962Z,29.38
2018-04-22T11:59:26.570Z,29.56
2018-04-22T12:01:55.638Z,29.74
2018-04-22T12:04:25.214Z,29.93
2018-04-22T12:06:54.840Z,30.13
2018-04-22T12:09:24.257Z,30.32
2018-04-22T12:11:53.974Z,30.41
2018-04-22T12:14:24.293Z,30.61
2018-04-22T12:16:53.683Z,31.05
2018-04-22T12:19:23.328Z,30.90
2018-04-22T12:21:51.557Z,30.65
2018-04-22T12:24:25.491Z,30.39
2018-04-22T12:26:54.874Z,30.45
2018-04-22T12:29:28.716Z,30.22
2018-04-22T12:31:58.273Z,30.11
2018-04-22T12:34:25.775Z,31.44
2018-04-22T12:36:55.378Z,32.87
2018-04-22T12:39:28.814Z,33.26
2018-04-22T12:41:58.355Z,34.02
2018-04-22T12:44:27.758Z,35.48
2018-04-22T12:46:55.308Z,36.28
2018-04-22T12:49:24.503Z,36.96
2018-04-22T12:51:54.047Z,37.68
2018-04-22T12:54:23.730Z,38.41
2018-04-22T12:56:53.340Z,39.22
2018-04-22T12:59:26.340Z,39.57
2018-04-22T13:01:55.589Z,39.69
2018-04-22T13:04:25.439Z,39.66
2018-04-22T13:07:08.910Z,40.01
2018-04-22T13:09:37.853Z,38.76
2018-04-22T13:12:07.534Z,39.39
2018-04-22T13:14:37.031Z,38.23
2018-04-22T13:17:06.613Z,36.57
2018-04-22T13:19:35.898Z,35.61
2018-04-22T13:22:09.275Z,35.18
2018-04-22T13:24:38.539Z,35.58
2018-04-22T13:27:09.185Z,36.43
2018-04-22T13:29:38.775Z,37.26
2018-04-22T13:32:07.903Z,37.35
2018-04-22T13:34:37.288Z,36.27
2018-04-22T13:37:07.219Z,35.75
2018-04-22T13:39:36.973Z,35.13
2018-04-22T13:42:05.726Z,34.02
2018-04-22T13:44:34.544Z,33.71
2018-04-22T13:47:03.015Z,33.81
2018-04-22T13:49:30.770Z,33.62
2018-04-22T13:52:00.170Z,33.33
2018-04-22T13:54:29.809Z,33.26
2018-04-22T13:56:58.585Z,33.11
2018-04-22T13:59:28.907Z,33.11
2018-04-22T14:01:57.938Z,33.71
2018-04-22T14:04:26.842Z,33.45
2018-04-22T14:06:55.937Z,33.37
2018-04-22T14:09:25.326Z,32.99
2018-04-22T14:11:59.782Z,32.32
2018-04-22T14:14:33.311Z,32.00
2018-04-22T14:17:03.171Z,32.35
2018-04-22T14:19:32.419Z,32.48
2018-04-22T14:22:11.158Z,33.01
2018-04-22T14:24:41.139Z,33.95
2018-04-22T14:27:10.738Z,33.64
2018-04-22T14:29:38.434Z,34.00
2018-04-22T14:32:09.032Z,34.33
2018-04-22T14:34:38.640Z,34.33
2018-04-22T14:37:07.981Z,34.21
2018-04-22T14:39:37.146Z,33.84
2018-04-22T14:42:07.742Z,33.95
2018-04-22T14:44:48.102Z,34.31
2018-04-22T14:47:18.364Z,34.27
2018-04-22T14:49:47.603Z,33.70
2018-04-22T14:52:18.553Z,33.57
2018-04-22T14:54:51.304Z,33.49
2018-04-22T14:57:21.306Z,32.99
2018-04-22T14:59:49.355Z,32.75
2018-04-22T15:02:18.444Z,32.66
2018-04-22T15:04:47.389Z,32.70
2018-04-22T15:07:17.515Z,32.68
2018-04-22T15:09:45.067Z,32.12
2018-04-22T15:12:14.113Z,32.07
2018-04-22T15:14:42.487Z,32.06
2018-04-22T15:17:11.941Z,31.79
2018-04-22T15:19:42.355Z,31.76
2018-04-22T15:22:12.013Z,32.00
2018-04-22T15:24:40.253Z,31.82
2018-04-22T15:27:14.379Z,31.71
2018-04-22T15:29:43.845Z,31.73
2018-04-22T15:32:12.994Z,31.62
2018-04-22T15:34:42.258Z,31.51
2018-04-22T15:37:13.005Z,31.30
2018-04-22T15:39:42.546Z,31.21
2018-04-22T15:42:11.696Z,31.23
2018-04-22T15:44:45.722Z,31.41
2018-04-22T15:47:14.701Z,31.23
2018-04-22T15:49:44.275Z,31.34
2018-04-22T15:52:13.200Z,31.34
2018-04-22T15:54:46.445Z,31.16
2018-04-22T15:57:16.036Z,31.11
2018-04-22T15:59:46.143Z,31.17
2018-04-22T16:02:13.642Z,31.11
2018-04-22T16:04:43.849Z,31.01
2018-04-22T16:07:12.739Z,30.82
2018-04-22T16:09:41.669Z,30.74
2018-04-22T16:12:10.865Z,30.62
2018-04-22T16:14:40.098Z,30.45
2018-04-22T16:17:09.768Z,30.53
2018-04-22T16:19:38.765Z,30.57
2018-04-22T16:22:08.275Z,30.69
2018-04-22T16:24:37.376Z,30.60
2018-04-22T16:27:07.372Z,30.43
2018-04-22T16:29:34.841Z,30.17
2018-04-22T16:32:04.289Z,30.15
2018-04-22T16:34:32.920Z,30.02
2018-04-22T16:37:06.150Z,29.96
2018-04-22T16:39:35.184Z,29.95
2018-04-22T16:42:04.727Z,29.95
2018-04-22T16:44:37.988Z,29.69
2018-04-22T16:47:11.250Z,29.73
2018-04-22T16:49:41.110Z,29.65
2018-04-22T16:52:10.382Z,29.69
2018-04-22T16:54:39.330Z,29.70
2018-04-22T16:57:08.118Z,29.74
2018-04-22T16:59:36.933Z,29.73
2018-04-22T17:02:06.096Z,29.74
2018-04-22T17:04:43.920Z,29.56
2018-04-22T17:07:13.091Z,29.44
2018-04-22T17:09:42.245Z,29.19
2018-04-22T17:12:10.908Z,29.02
2018-04-22T17:14:40.962Z,28.85
2018-04-22T17:22:35.767Z,28.42
2018-04-22T17:28:13.523Z,28.19
2018-04-22T17:30:43.867Z,28.20
2018-04-22T17:33:13.050Z,28.08
2018-04-22T17:35:47.743Z,28.04
2018-04-22T17:38:17.191Z,27.95
2018-04-22T17:43:47.850Z,27.78
2018-04-22T17:46:17.379Z,27.72
2018-04-22T17:48:46.113Z,27.73
2018-04-22T17:51:19.443Z,27.76
2018-04-22T17:53:49.480Z,27.69
2018-04-22T17:56:23.607Z,27.57
2018-04-22T17:58:56.661Z,27.57
2018-04-22T18:01:25.810Z,27.46
2018-04-22T18:03:53.860Z,27.49
2018-04-22T18:06:23.024Z,27.48
2018-04-22T18:08:52.479Z,27.29
2018-04-22T18:11:21.017Z,27.32
2018-04-22T18:13:53.217Z,27.28
2018-04-22T18:16:23.617Z,27.14
2018-04-22T18:18:53.022Z,27.01
2018-04-22T18:21:22.721Z,26.83
2018-04-22T18:23:51.099Z,26.80
2018-04-22T18:26:20.011Z,26.75
2018-04-22T18:28:50.572Z,26.74
2018-04-22T18:31:19.722Z,26.71
2018-04-22T18:33:49.052Z,26.66
2018-04-22T18:36:17.929Z,26.59
2018-04-22T18:38:47.773Z,26.48
2018-04-22T18:41:15.996Z,26.31
2018-04-22T18:43:45.215Z,25.94
2018-04-22T18:46:14.963Z,26.02
2018-04-22T18:48:44.071Z,25.98
2018-04-22T18:51:13.613Z,25.81
2018-04-22T18:53:42.959Z,25.82
2018-04-22T18:56:11.612Z,25.79
2018-04-22T18:58:45.410Z,25.81
2018-04-22T19:01:14.033Z,25.85
2018-04-22T19:03:42.548Z,25.84
2018-04-22T19:06:12.068Z,25.84
2018-04-22T19:08:41.630Z,25.87
2018-04-22T19:11:18.096Z,25.73
2018-04-22T19:13:47.037Z,25.62
2018-04-22T19:16:20.960Z,25.61
2018-04-22T19:18:49.736Z,25.59
2018-04-22T19:21:18.673Z,25.58
2018-04-22T19:23:47.986Z,25.56
2018-04-22T19:26:19.194Z,25.52
2018-04-22T19:28:48.136Z,25.51
2018-04-22T19:31:17.949Z,25.44
2018-04-22T19:33:45.460Z,25.36
2018-04-22T19:36:18.555Z,25.32
2018-04-22T19:38:48.166Z,25.30
2018-04-22T19:41:17.128Z,25.23
2018-04-22T19:43:52.344Z,25.16
2018-04-22T19:46:21.157Z,25.09
2018-04-22T19:48:50.280Z,25.03
2018-04-22T19:51:19.775Z,24.93
2018-04-22T19:53:53.458Z,24.82
2018-04-22T19:56:22.965Z,24.74
2018-04-22T19:58:52.763Z,24.63
2018-04-22T20:01:21.737Z,24.55
2018-04-22T20:03:50.307Z,24.50
2018-04-22T20:06:20.813Z,24.42
2018-04-22T20:08:49.225Z,24.36
2018-04-22T20:11:19.678Z,24.30
2018-04-22T20:13:48.846Z,24.21
2018-04-22T20:16:17.962Z,24.16
2018-04-22T20:18:47.132Z,24.11
2018-04-22T20:21:18.542Z,24.03
2018-04-22T20:23:48.248Z,23.99
2018-04-22T20:26:17.446Z,23.78
2018-04-22T20:28:45.806Z,23.67
2018-04-22T20:31:14.130Z,23.71
2018-04-22T20:33:41.706Z,23.64
2018-04-22T20:36:10.764Z,23.57
2018-04-22T20:38:45.211Z,23.53
2018-04-22T20:41:15.493Z,23.44
2018-04-22T20:43:44.877Z,23.33
2018-04-22T20:46:19.121Z,23.33
2018-04-22T20:48:48.231Z,23.23
2018-04-22T20:51:18.187Z,23.16
2018-04-22T20:53:51.400Z,23.22
2018-04-22T20:56:26.059Z,23.12
2018-04-22T20:58:54.894Z,23.11
2018-04-22T21:01:24.025Z,23.13
2018-04-22T21:03:53.161Z,23.10
2018-04-22T21:06:22.099Z,23.07
2018-04-22T21:08:52.105Z,23.12
2018-04-22T21:11:19.549Z,23.15
2018-04-22T21:13:49.572Z,23.07
2018-04-22T21:16:18.441Z,23.04
2018-04-22T21:18:47.033Z,22.95
2018-04-22T21:21:16.129Z,22.97
2018-04-22T21:23:45.539Z,22.95
2018-04-22T21:26:14.951Z,22.84
2018-04-22T21:28:43.904Z,22.74
2018-04-22T21:31:12.944Z,22.66
2018-04-22T21:33:42.347Z,22.58
2018-04-22T21:36:09.802Z,22.36
2018-04-22T21:38:38.568Z,22.41
2018-04-22T21:41:07.618Z,22.42
2018-04-22T21:43:36.466Z,22.34
2018-04-22T21:46:06.616Z,22.26
2018-04-22T21:48:35.358Z,22.21
2018-04-22T21:51:06.538Z,22.16
2018-04-22T21:53:40.063Z,22.17
2018-04-22T21:56:09.694Z,22.11
2018-04-22T21:58:40.249Z,22.04
2018-04-22T22:01:13.418Z,22.09
2018-04-22T22:03:42.191Z,22.05
2018-04-22T22:06:11.880Z,22.06
2018-04-22T22:08:41.142Z,22.04
2018-04-22T22:11:10.152Z,22.01
2018-04-22T22:13:43.603Z,22.07
2018-04-22T22:16:12.457Z,22.11
2018-04-22T22:18:41.784Z,22.14
2018-04-22T22:21:15.067Z,22.14
2018-04-22T22:23:44.266Z,22.15
2018-04-22T22:26:13.510Z,22.16
2018-04-22T22:28:43.356Z,22.18
2018-04-22T22:31:17.258Z,22.20
2018-04-22T22:33:48.464Z,22.20
2018-04-22T22:36:17.575Z,22.24
2018-04-22T22:38:47.244Z,22.28
2018-04-22T22:41:14.738Z,22.33
2018-04-22T22:43:43.839Z,22.35
2018-04-22T22:46:13.074Z,22.30
2018-04-22T22:48:42.418Z,22.26
2018-04-22T22:51:12.092Z,22.21
2018-04-22T22:53:41.363Z,22.15
2018-04-22T22:56:10.904Z,22.15
2018-04-22T22:58:39.595Z,22.14
2018-04-22T23:01:09.236Z,22.05
2018-04-22T23:03:42.758Z,22.09
2018-04-22T23:06:13.007Z,22.13
2018-04-22T23:08:41.896Z,22.12
2018-04-22T23:11:10.301Z,22.09
2018-04-22T23:13:39.642Z,22.08
2018-04-22T23:16:08.683Z,22.08
2018-04-22T23:18:36.143Z,22.12
2018-04-22T23:21:08.974Z,22.10
2018-04-22T23:23:39.996Z,22.10
2018-04-22T23:26:11.436Z,22.07
2018-04-22T23:28:41.312Z,22.07
2018-04-22T23:31:08.738Z,22.01
2018-04-22T23:33:37.694Z,21.97
2018-04-22T23:36:07.184Z,21.95
2018-04-22T23:38:36.300Z,21.91
2018-04-22T23:41:05.364Z,21.92
2018-04-22T23:43:34.664Z,21.90
2018-04-22T23:46:03.396Z,21.89
2018-04-22T23:48:32.886Z,21.88
2018-04-22T23:51:02.193Z,21.92
2018-04-22T23:53:31.246Z,21.90
2018-04-22T23:56:00.107Z,21.93
2018-04-22T23:58:28.683Z,21.91
